createdAt,value
2022-07-29T00:01:51.392Z,35.34
2022-07-29T00:04:21.457Z,35.48
2022-07-29T00:09:22.063Z,35.60
2022-07-29T00:11:50.597Z,35.52
2022-07-29T00:14:25.608Z,34.86
2022-07-29T00:16:57.691Z,36.03
2022-07-29T00:19:25.558Z,35.89
2022-07-29T00:21:59.072Z,35.33
2022-07-29T00:24:27.394Z,35.69
2022-07-29T00:26:55.197Z,35.29
2022-07-29T00:29:38.398Z,35.53
2022-07-29T00:32:07.677Z,35.69
2022-07-29T00:34:36.741Z,35.47
2022-07-29T00:37:09.868Z,35.36
2022-07-29T00:42:09.387Z,36.21
2022-07-29T00:44:40.953Z,36.33
2022-07-29T00:47:11.939Z,37.90
2022-07-29T00:49:42.937Z,37.51
2022-07-29T00:52:17.045Z,36.65
2022-07-29T00:54:45.635Z,37.17
2022-07-29T00:57:17.008Z,36.46
2022-07-29T00:59:51.776Z,35.99
2022-07-29T01:02:23.393Z,36.21
2022-07-29T01:04:54.785Z,36.30
2022-07-29T01:10:00.265Z,36.92
2022-07-29T01:12:36.884Z,37.36
2022-07-29T01:15:09.619Z,37.51
2022-07-29T01:17:52.486Z,38.56
2022-07-29T01:23:29.118Z,36.47
2022-07-29T01:26:14.818Z,36.26
2022-07-29T01:29:07.604Z,35.74
2022-07-29T01:31:58.508Z,36.86
2022-07-29T01:34:31.858Z,36.49
2022-07-29T01:37:08.083Z,36.54
2022-07-29T01:39:45.787Z,36.19
2022-07-29T01:42:25.968Z,35.91
2022-07-29T01:47:41.997Z,36.35
2022-07-29T01:50:12.055Z,37.45
2022-07-29T01:52:46.765Z,37.23
2022-07-29T01:55:18.020Z,36.51
2022-07-29T01:57:49.284Z,36.98
2022-07-29T02:00:23.941Z,39.08
2022-07-29T02:02:57.239Z,39.75
2022-07-29T02:05:26.142Z,39.55
2022-07-29T02:07:55.748Z,39.63
2022-07-29T02:10:28.358Z,39.53
2022-07-29T02:13:00.245Z,39.01
2022-07-29T02:15:33.962Z,39.03
2022-07-29T02:18:06.414Z,39.64
2022-07-29T02:20:38.988Z,39.33
2022-07-29T02:23:09.224Z,39.39
2022-07-29T02:30:49.045Z,39.26
2022-07-29T02:33:18.900Z,38.71
2022-07-29T02:38:38.735Z,38.92
2022-07-29T02:41:12.045Z,39.29
2022-07-29T02:43:42.755Z,39.79
2022-07-29T02:46:29.516Z,39.41
2022-07-29T02:49:06.313Z,38.80
2022-07-29T02:51:45.872Z,38.32
2022-07-29T02:54:17.307Z,39.08
2022-07-29T02:56:49.607Z,39.33
2022-07-29T02:59:21.032Z,39.78
2022-07-29T03:01:49.961Z,39.87
2022-07-29T03:06:56.576Z,39.76
2022-07-29T03:09:29.704Z,39.22
2022-07-29T03:11:59.244Z,38.22
2022-07-29T03:14:30.087Z,38.77
2022-07-29T03:17:01.181Z,38.67
2022-07-29T03:21:58.675Z,40.23
2022-07-29T03:24:29.882Z,40.87
2022-07-29T03:26:59.072Z,39.61
2022-07-29T03:29:33.884Z,39.81
2022-07-29T03:32:08.573Z,41.07
2022-07-29T03:34:39.830Z,40.54
2022-07-29T03:37:11.191Z,41.08
2022-07-29T03:39:43.347Z,39.61
2022-07-29T03:42:15.262Z,41.03
2022-07-29T03:44:47.991Z,42.43
2022-07-29T03:47:17.223Z,42.55
2022-07-29T03:49:50.216Z,42.55
2022-07-29T03:57:35.157Z,43.42
2022-07-29T04:00:08.029Z,43.65
2022-07-29T04:02:37.331Z,44.24
2022-07-29T04:05:05.936Z,44.30
2022-07-29T04:07:33.978Z,44.49
2022-07-29T04:12:43.719Z,43.89
2022-07-29T04:15:14.468Z,43.82
2022-07-29T04:17:44.957Z,42.71
2022-07-29T04:20:16.385Z,42.26
2022-07-29T04:22:44.243Z,43.88
2022-07-29T04:25:15.216Z,44.30
2022-07-29T04:30:32.258Z,43.30
2022-07-29T04:33:02.172Z,42.93
2022-07-29T04:35:38.413Z,42.94
2022-07-29T04:38:15.919Z,43.84
2022-07-29T04:40:45.127Z,43.57
2022-07-29T04:43:15.987Z,42.92
2022-07-29T04:45:45.903Z,43.03
2022-07-29T04:48:14.476Z,43.31
2022-07-29T04:50:44.028Z,43.78
2022-07-29T04:53:12.874Z,44.08
2022-07-29T04:55:45.967Z,44.01
2022-07-29T04:58:13.819Z,43.57
2022-07-29T05:00:42.663Z,43.52
2022-07-29T05:03:18.249Z,42.90
2022-07-29T05:05:52.986Z,42.75
2022-07-29T05:08:21.660Z,43.07
2022-07-29T05:10:49.594Z,43.26
2022-07-29T05:13:17.714Z,43.82
2022-07-29T05:15:45.869Z,43.93
2022-07-29T05:18:15.706Z,44.08
2022-07-29T05:20:44.240Z,42.80
2022-07-29T05:23:14.194Z,43.14
2022-07-29T05:25:45.214Z,43.66
2022-07-29T05:28:13.609Z,43.31
2022-07-29T05:30:41.554Z,42.48
2022-07-29T05:33:34.737Z,43.24
2022-07-29T05:36:03.626Z,43.26
2022-07-29T05:38:33.812Z,42.58
2022-07-29T05:41:05.039Z,42.33
2022-07-29T05:43:36.153Z,41.26
2022-07-29T05:46:04.641Z,41.50
2022-07-29T05:48:32.596Z,41.66
2022-07-29T05:51:00.292Z,41.66
2022-07-29T05:53:33.172Z,41.30
2022-07-29T05:56:04.738Z,41.58
2022-07-29T05:58:33.784Z,42.87
2022-07-29T06:01:05.224Z,42.76
2022-07-29T06:03:34.369Z,41.08
2022-07-29T06:06:02.128Z,41.88
2022-07-29T06:08:35.001Z,41.98
2022-07-29T06:13:33.655Z,41.23
2022-07-29T06:16:04.414Z,41.38
2022-07-29T06:18:32.801Z,41.56
2022-07-29T06:21:01.191Z,41.17
2022-07-29T06:23:29.007Z,40.18
2022-07-29T06:26:00.284Z,39.99
2022-07-29T06:28:29.555Z,40.25
2022-07-29T06:30:57.948Z,40.07
2022-07-29T06:33:27.221Z,40.02
2022-07-29T06:35:55.957Z,39.97
2022-07-29T06:38:30.703Z,39.77
2022-07-29T06:46:07.622Z,37.50
2022-07-29T06:48:37.504Z,38.38
2022-07-29T06:51:09.995Z,38.90
2022-07-29T06:54:00.462Z,38.84
2022-07-29T06:56:29.583Z,39.03
2022-07-29T06:58:59.901Z,37.56
2022-07-29T07:01:29.553Z,37.35
2022-07-29T07:04:01.382Z,37.44
2022-07-29T07:09:04.082Z,36.35
2022-07-29T07:11:36.449Z,35.93
2022-07-29T07:14:05.874Z,36.31
2022-07-29T07:16:34.424Z,36.96
2022-07-29T07:19:05.605Z,35.75
2022-07-29T07:21:34.472Z,35.75
2022-07-29T07:24:04.899Z,34.57
2022-07-29T07:26:32.815Z,34.90
2022-07-29T07:29:01.697Z,34.28
2022-07-29T07:31:32.389Z,34.43
2022-07-29T07:34:00.610Z,33.28
2022-07-29T07:36:29.058Z,32.25
2022-07-29T07:38:57.503Z,32.51
2022-07-29T07:41:26.526Z,32.10
2022-07-29T07:44:00.782Z,33.11
2022-07-29T07:46:28.877Z,32.98
2022-07-29T07:48:58.665Z,33.10
2022-07-29T07:51:28.288Z,32.48
2022-07-29T07:53:59.365Z,31.73
2022-07-29T07:56:30.726Z,32.48
2022-07-29T07:59:02.742Z,32.55
2022-07-29T08:01:31.065Z,31.77
2022-07-29T08:04:27.106Z,31.66
2022-07-29T08:06:59.581Z,31.80
2022-07-29T08:09:30.404Z,31.57
2022-07-29T08:12:07.083Z,31.17
2022-07-29T08:14:38.588Z,31.50
2022-07-29T08:17:06.876Z,31.19
2022-07-29T08:19:37.898Z,30.94
2022-07-29T08:22:05.725Z,30.83
2022-07-29T08:24:48.613Z,30.45
2022-07-29T08:27:41.743Z,28.81
2022-07-29T08:30:07.171Z,28.50
2022-07-29T08:35:30.970Z,28.76
2022-07-29T08:38:05.982Z,27.94
2022-07-29T08:40:33.962Z,27.90
2022-07-29T08:43:07.252Z,27.79
2022-07-29T08:45:42.536Z,26.79
2022-07-29T08:48:16.880Z,27.31
2022-07-29T08:50:51.685Z,26.55
2022-07-29T08:53:21.141Z,26.46
2022-07-29T08:55:51.063Z,26.48
2022-07-29T08:58:22.970Z,26.21
2022-07-29T09:00:52.542Z,25.15
2022-07-29T09:03:24.120Z,26.12
2022-07-29T09:05:54.670Z,27.12
2022-07-29T09:08:22.899Z,25.41
2022-07-29T09:10:52.192Z,24.89
2022-07-29T09:13:20.684Z,26.78
2022-07-29T09:15:48.710Z,27.23
2022-07-29T09:18:38.134Z,27.04
2022-07-29T09:21:27.734Z,26.01
2022-07-29T09:24:15.863Z,25.89
2022-07-29T09:26:47.981Z,25.19
2022-07-29T09:29:17.529Z,25.82
2022-07-29T09:31:46.538Z,26.27
2022-07-29T09:34:17.123Z,25.71
2022-07-29T09:36:46.670Z,25.48
2022-07-29T09:39:17.771Z,26.04
2022-07-29T09:41:48.237Z,25.98
2022-07-29T09:44:16.443Z,25.69
2022-07-29T09:46:57.191Z,24.83
2022-07-29T09:49:26.337Z,24.12
2022-07-29T09:52:07.217Z,24.61
2022-07-29T09:54:38.890Z,23.25
2022-07-29T09:57:25.235Z,23.84
2022-07-29T09:59:59.567Z,23.06
2022-07-29T10:02:31.970Z,22.24
2022-07-29T10:05:02.346Z,22.49
2022-07-29T10:07:53.515Z,21.98
2022-07-29T10:10:28.305Z,21.85
2022-07-29T10:12:59.742Z,21.60
2022-07-29T10:15:33.200Z,21.80
2022-07-29T10:20:30.012Z,20.70
2022-07-29T10:23:00.904Z,21.18
2022-07-29T10:25:31.025Z,20.54
2022-07-29T10:28:02.797Z,21.07
2022-07-29T10:30:31.211Z,21.24
2022-07-29T10:33:18.583Z,21.71
2022-07-29T10:36:03.235Z,21.64
2022-07-29T10:38:50.815Z,22.72
2022-07-29T10:41:44.273Z,22.16
2022-07-29T10:44:23.198Z,22.20
2022-07-29T10:46:55.118Z,21.18
2022-07-29T10:52:05.969Z,21.74
2022-07-29T10:54:55.116Z,21.47
2022-07-29T10:57:53.692Z,21.17
2022-07-29T11:00:33.658Z,22.09
2022-07-29T11:03:10.518Z,22.33
2022-07-29T11:05:59.945Z,22.32
2022-07-29T11:08:29.114Z,21.97
2022-07-29T11:11:38.593Z,21.85
2022-07-29T11:14:10.307Z,22.08
2022-07-29T11:17:16.320Z,21.28
2022-07-29T11:19:51.940Z,20.56
2022-07-29T11:22:34.598Z,21.66
2022-07-29T11:27:47.030Z,21.79
2022-07-29T11:30:16.685Z,22.00
2022-07-29T11:32:50.355Z,22.46
2022-07-29T11:35:38.452Z,21.66
2022-07-29T11:38:32.280Z,20.82
2022-07-29T11:41:25.979Z,20.04
2022-07-29T11:43:56.325Z,20.33
2022-07-29T11:46:50.250Z,19.70
2022-07-29T11:49:31.992Z,19.67
2022-07-29T11:52:13.094Z,19.82
2022-07-29T11:54:58.064Z,20.49
2022-07-29T11:57:37.191Z,20.42
2022-07-29T12:00:14.421Z,20.65
2022-07-29T12:02:48.446Z,20.44
2022-07-29T12:05:35.997Z,20.98
2022-07-29T12:08:18.757Z,21.12
2022-07-29T12:10:52.501Z,19.35
2022-07-29T12:13:37.841Z,20.32
2022-07-29T12:16:07.484Z,20.38
2022-07-29T12:18:38.445Z,21.24
2022-07-29T12:21:09.648Z,20.69
2022-07-29T12:23:54.947Z,19.87
2022-07-29T12:26:26.604Z,19.36
2022-07-29T12:28:56.710Z,18.66
2022-07-29T12:31:42.451Z,18.26
2022-07-29T12:34:14.702Z,18.36
2022-07-29T12:36:46.363Z,18.47
2022-07-29T12:39:17.030Z,18.57
2022-07-29T12:41:47.390Z,19.26
2022-07-29T12:44:18.038Z,18.79
2022-07-29T12:46:49.032Z,18.03
2022-07-29T12:49:20.515Z,18.24
2022-07-29T12:51:48.790Z,17.74
2022-07-29T12:54:18.148Z,18.33
2022-07-29T12:56:46.995Z,19.01
2022-07-29T12:59:20.821Z,19.59
2022-07-29T13:01:52.395Z,19.97
2022-07-29T13:04:28.203Z,19.54
2022-07-29T13:07:05.777Z,20.08
2022-07-29T13:09:42.149Z,19.73
2022-07-29T13:12:12.269Z,21.02
2022-07-29T13:14:48.617Z,21.05
2022-07-29T13:17:18.227Z,21.34
2022-07-29T13:19:52.695Z,21.05
2022-07-29T13:22:25.210Z,20.76
2022-07-29T13:24:54.574Z,21.23
2022-07-29T13:27:24.402Z,21.05
2022-07-29T13:29:58.949Z,21.61
2022-07-29T13:32:29.469Z,21.89
2022-07-29T13:34:57.730Z,21.77
2022-07-29T13:37:27.358Z,21.63
2022-07-29T13:39:57.202Z,21.74
2022-07-29T13:42:28.435Z,21.90
2022-07-29T13:47:32.257Z,21.81
2022-07-29T13:50:03.096Z,22.17
2022-07-29T13:52:31.066Z,22.62
2022-07-29T13:55:02.593Z,22.76
2022-07-29T13:57:31.284Z,22.09
2022-07-29T14:00:01.104Z,22.18
2022-07-29T14:02:30.010Z,23.13
2022-07-29T14:04:58.785Z,22.95
2022-07-29T14:07:29.616Z,22.68
2022-07-29T14:09:58.395Z,22.92
2022-07-29T14:12:26.613Z,22.85
2022-07-29T14:14:54.619Z,22.58
2022-07-29T14:17:24.913Z,22.41
2022-07-29T14:22:22.326Z,22.10
2022-07-29T14:24:54.107Z,22.73
2022-07-29T14:27:37.519Z,22.88
2022-07-29T14:30:08.190Z,22.87
2022-07-29T14:32:38.447Z,22.92
2022-07-29T14:35:07.673Z,23.17
2022-07-29T14:37:39.358Z,23.27
2022-07-29T14:40:10.528Z,22.65
2022-07-29T14:42:39.130Z,22.56
2022-07-29T14:45:09.377Z,22.68
2022-07-29T14:47:40.799Z,22.85
2022-07-29T14:50:12.165Z,22.70
2022-07-29T14:52:40.600Z,23.26
2022-07-29T14:55:19.623Z,22.62
2022-07-29T14:57:49.403Z,22.55
2022-07-29T15:00:18.402Z,22.00
2022-07-29T15:03:04.513Z,22.57
2022-07-29T15:05:37.505Z,22.46
2022-07-29T15:08:05.840Z,22.51
2022-07-29T15:10:34.199Z,22.15
2022-07-29T15:13:02.493Z,22.52
2022-07-29T15:15:30.633Z,22.15
2022-07-29T15:18:01.416Z,22.18
2022-07-29T15:20:29.841Z,22.08
2022-07-29T15:22:58.155Z,21.98
2022-07-29T15:25:27.942Z,21.72
2022-07-29T15:28:01.213Z,22.12
2022-07-29T15:30:33.291Z,22.28
2022-07-29T15:35:39.986Z,21.68
2022-07-29T15:38:10.548Z,22.30
2022-07-29T15:43:11.830Z,21.11
2022-07-29T15:45:41.440Z,21.23
2022-07-29T15:48:14.531Z,21.18
2022-07-29T15:50:43.003Z,21.41
2022-07-29T15:53:15.601Z,21.43
2022-07-29T15:55:44.482Z,21.73
2022-07-29T15:58:12.910Z,21.44
2022-07-29T16:00:41.729Z,22.06
2022-07-29T16:03:11.425Z,21.95
2022-07-29T16:05:42.480Z,22.68
2022-07-29T16:08:11.164Z,20.99
2022-07-29T16:10:39.291Z,21.28
2022-07-29T16:13:07.722Z,21.07
2022-07-29T16:15:36.184Z,20.64
2022-07-29T16:18:04.424Z,20.70
2022-07-29T16:20:33.948Z,20.79
2022-07-29T16:23:04.994Z,20.77
2022-07-29T16:25:57.418Z,20.58
2022-07-29T16:28:21.529Z,20.34
2022-07-29T16:30:51.597Z,20.23
2022-07-29T16:33:19.706Z,20.45
2022-07-29T16:35:50.659Z,19.72
2022-07-29T16:38:19.360Z,20.09
2022-07-29T16:40:47.515Z,20.71
2022-07-29T16:43:16.371Z,21.12
2022-07-29T16:45:47.787Z,20.91
2022-07-29T16:48:18.136Z,20.96
2022-07-29T16:50:46.899Z,20.48
2022-07-29T16:53:17.090Z,20.53
2022-07-29T16:55:45.604Z,20.33
2022-07-29T16:58:14.795Z,20.15
2022-07-29T17:00:43.038Z,20.87
2022-07-29T17:03:11.144Z,20.85
2022-07-29T17:05:52.038Z,20.77
2022-07-29T17:10:57.743Z,21.04
2022-07-29T17:13:27.195Z,21.41
2022-07-29T17:16:00.646Z,21.47
2022-07-29T17:18:29.255Z,21.78
2022-07-29T17:20:57.205Z,21.63
2022-07-29T17:25:58.253Z,22.14
2022-07-29T17:28:26.449Z,22.40
2022-07-29T17:30:54.627Z,22.54
2022-07-29T17:33:24.715Z,22.51
2022-07-29T17:36:11.320Z,22.91
2022-07-29T17:38:41.955Z,23.02
2022-07-29T17:41:10.299Z,23.09
2022-07-29T17:43:38.166Z,23.40
2022-07-29T17:46:08.777Z,24.14
2022-07-29T17:48:38.275Z,24.40
2022-07-29T17:51:06.376Z,24.94
2022-07-29T17:53:34.659Z,24.98
2022-07-29T17:56:08.683Z,24.85
2022-07-29T17:58:36.896Z,24.98
2022-07-29T18:01:05.201Z,25.37
2022-07-29T18:03:34.573Z,25.34
2022-07-29T18:06:06.337Z,25.52
2022-07-29T18:08:35.023Z,25.61
2022-07-29T18:11:04.310Z,26.00
2022-07-29T18:13:35.468Z,25.96
2022-07-29T18:16:03.934Z,24.95
2022-07-29T18:18:32.019Z,26.10
2022-07-29T18:21:01.502Z,24.29
2022-07-29T18:23:29.327Z,24.97
2022-07-29T18:25:57.232Z,27.21
2022-07-29T18:28:25.470Z,28.34
2022-07-29T18:30:56.802Z,28.68
2022-07-29T18:33:28.994Z,28.95
2022-07-29T18:36:06.126Z,28.71
2022-07-29T18:38:39.711Z,28.60
2022-07-29T18:41:08.270Z,28.90
2022-07-29T18:43:36.216Z,28.99
2022-07-29T18:46:07.150Z,29.02
2022-07-29T18:48:35.519Z,28.83
2022-07-29T18:51:09.236Z,28.91
2022-07-29T18:53:38.733Z,29.45
2022-07-29T18:56:09.844Z,29.78
2022-07-29T18:58:42.273Z,28.98
2022-07-29T19:03:46.150Z,28.58
2022-07-29T19:06:15.542Z,28.60
2022-07-29T19:08:43.695Z,29.41
2022-07-29T19:11:15.395Z,29.52
2022-07-29T19:13:43.805Z,29.32
2022-07-29T19:16:15.765Z,29.66
2022-07-29T19:18:48.715Z,29.54
2022-07-29T19:21:21.509Z,30.25
2022-07-29T19:24:01.696Z,31.46
2022-07-29T19:26:44.379Z,31.03
2022-07-29T19:29:12.688Z,30.71
2022-07-29T19:31:41.477Z,30.29
2022-07-29T19:34:12.615Z,30.45
2022-07-29T19:36:43.074Z,30.46
2022-07-29T19:39:11.879Z,30.66
2022-07-29T19:41:40.908Z,30.97
2022-07-29T19:44:08.975Z,30.79
2022-07-29T19:46:40.621Z,31.19
2022-07-29T19:49:10.873Z,30.66
2022-07-29T19:51:45.468Z,30.68
2022-07-29T19:54:14.828Z,31.29
2022-07-29T19:56:46.296Z,31.79
2022-07-29T19:59:14.157Z,30.74
2022-07-29T20:01:44.134Z,30.95
2022-07-29T20:04:15.695Z,30.90
2022-07-29T20:09:20.442Z,31.73
2022-07-29T20:11:52.062Z,31.90
2022-07-29T20:14:26.624Z,31.53
2022-07-29T20:19:39.904Z,31.06
2022-07-29T20:24:38.915Z,31.42
2022-07-29T20:27:06.940Z,31.49
2022-07-29T20:29:42.894Z,31.75
2022-07-29T20:32:12.868Z,31.59
2022-07-29T20:34:42.322Z,31.59
2022-07-29T20:37:11.819Z,31.12
2022-07-29T20:39:39.923Z,31.47
2022-07-29T20:42:08.966Z,30.75
2022-07-29T20:44:37.537Z,30.56
2022-07-29T20:47:05.781Z,32.10
2022-07-29T20:49:37.006Z,32.23
2022-07-29T20:52:10.637Z,32.26
2022-07-29T20:54:43.050Z,32.48
2022-07-29T20:57:16.682Z,32.19
2022-07-29T20:59:45.876Z,31.86
2022-07-29T21:02:14.511Z,32.20
2022-07-29T21:04:44.055Z,32.33
2022-07-29T21:07:13.954Z,31.60
2022-07-29T21:09:42.670Z,31.50
2022-07-29T21:12:11.640Z,31.45
2022-07-29T21:14:39.595Z,31.64
2022-07-29T21:17:08.601Z,32.01
2022-07-29T21:19:37.277Z,31.66
2022-07-29T21:22:08.985Z,31.97
2022-07-29T21:24:40.411Z,31.88
2022-07-29T21:27:27.297Z,32.20
2022-07-29T21:29:56.367Z,32.00
2022-07-29T21:32:31.042Z,32.20
2022-07-29T21:34:59.977Z,32.26
2022-07-29T21:37:28.611Z,32.67
2022-07-29T21:39:58.194Z,32.15
2022-07-29T21:42:25.986Z,32.24
2022-07-29T21:44:54.962Z,32.20
2022-07-29T21:47:23.166Z,32.52
2022-07-29T21:49:52.109Z,32.21
2022-07-29T21:54:51.064Z,31.82
2022-07-29T21:57:21.514Z,32.11
2022-07-29T21:59:53.971Z,32.02
2022-07-29T22:02:23.257Z,32.15
2022-07-29T22:04:52.035Z,31.99
2022-07-29T22:07:20.157Z,31.98
2022-07-29T22:09:48.119Z,31.94
2022-07-29T22:12:16.596Z,31.14
2022-07-29T22:14:50.182Z,31.98
2022-07-29T22:17:21.961Z,30.91
2022-07-29T22:19:49.860Z,32.64
2022-07-29T22:22:19.270Z,32.74
2022-07-29T22:27:20.170Z,32.77
2022-07-29T22:29:51.108Z,32.54
2022-07-29T22:32:18.797Z,33.46
2022-07-29T22:34:47.140Z,31.95
2022-07-29T22:37:15.660Z,31.94
2022-07-29T22:39:43.590Z,32.09
2022-07-29T22:42:11.747Z,32.19
2022-07-29T22:44:40.010Z,31.49
2022-07-29T22:47:14.105Z,32.09
2022-07-29T22:49:43.016Z,32.52
2022-07-29T22:52:11.481Z,32.43
2022-07-29T22:54:42.549Z,32.49
2022-07-29T22:57:10.722Z,31.90
2022-07-29T22:59:38.771Z,31.47
2022-07-29T23:02:07.325Z,31.88
2022-07-29T23:04:38.001Z,31.31
2022-07-29T23:07:08.181Z,31.97
2022-07-29T23:09:36.759Z,32.71
2022-07-29T23:12:04.991Z,32.25
2022-07-29T23:14:33.125Z,32.63
2022-07-29T23:17:03.003Z,32.60
2022-07-29T23:19:32.187Z,33.05
2022-07-29T23:22:00.018Z,33.09
2022-07-29T23:24:31.510Z,32.35
2022-07-29T23:26:59.216Z,33.33
2022-07-29T23:29:28.325Z,33.07
2022-07-29T23:34:25.652Z,32.21
2022-07-29T23:36:53.490Z,31.42
2022-07-29T23:39:21.691Z,32.03
2022-07-29T23:41:53.402Z,32.46
2022-07-29T23:44:23.218Z,32.11
2022-07-29T23:49:21.754Z,33.80
2022-07-29T23:51:49.601Z,34.55
2022-07-29T23:54:18.061Z,34.19
2022-07-29T23:56:46.486Z,33.97
2022-07-29T23:59:14.643Z,34.69
